AFZ48E EICK-EICK
Flight info
| Callsign | AFZ48E |
|---|---|
| Flight time | 0h 31m |
| Altitude | 5000 |
| Route | DCT |
| Aircraft | DA42/L-SDGY/S |
Departure
| Time | 2026-05-01 13:43 |
|---|---|
| Airport | Cork International Airport (EICK) |
Arrival
| Time | 2026-05-01 14:14 |
|---|---|
| Airport | Cork International Airport (EICK) |
| Time | Latitude | Longitude | Altitude | Speed | Heading |
|---|---|---|---|---|---|
| 2026-05-01 13:21 | 51.83877 | -8.48515 | 453 ft | 0 kts | 249° |
| 2026-05-01 13:33 | 51.83870 | -8.48542 | 454 ft | 8 kts | 247° |
| 2026-05-01 13:34 | 51.83856 | -8.48629 | 454 ft | 0 kts | 158° |
| 2026-05-01 13:39 | 51.83846 | -8.48621 | 454 ft | 4 kts | 155° |
| 2026-05-01 13:39 | 51.83838 | -8.48619 | 455 ft | 1 kts | 184° |
| 2026-05-01 13:39 | 51.83822 | -8.48659 | 458 ft | 3 kts | 250° |
| 2026-05-01 13:39 | 51.83821 | -8.48665 | 458 ft | 0 kts | 246° |
| 2026-05-01 13:40 | 51.83820 | -8.48668 | 458 ft | 2 kts | 246° |
| 2026-05-01 13:40 | 51.83799 | -8.48760 | 462 ft | 14 kts | 251° |
| 2026-05-01 13:41 | 51.83777 | -8.48888 | 462 ft | 10 kts | 311° |
| 2026-05-01 13:41 | 51.83855 | -8.48939 | 464 ft | 15 kts | 338° |
| 2026-05-01 13:41 | 51.83963 | -8.49011 | 466 ft | 19 kts | 338° |
| 2026-05-01 13:41 | 51.84097 | -8.49089 | 471 ft | 21 kts | 342° |
| 2026-05-01 13:42 | 51.84183 | -8.49127 | 474 ft | 8 kts | 251° |
| 2026-05-01 13:42 | 51.84139 | -8.49117 | 472 ft | 12 kts | 161° |
| 2026-05-01 13:42 | 51.83861 | -8.48951 | 465 ft | 72 kts | 159° |
| 2026-05-01 13:42 | 51.83315 | -8.48613 | 682 ft | 86 kts | 160° |
| 2026-05-01 13:43 | 51.82931 | -8.48370 | 1028 ft | 82 kts | 159° |
| 2026-05-01 13:43 | 51.82787 | -8.48268 | 1151 ft | 84 kts | 163° |
| 2026-05-01 13:43 | 51.82201 | -8.48212 | 1537 ft | 89 kts | 206° |
| 2026-05-01 13:43 | 51.81892 | -8.49104 | 1861 ft | 104 kts | 260° |
| 2026-05-01 13:44 | 51.81871 | -8.50227 | 2297 ft | 100 kts | 259° |
| 2026-05-01 13:44 | 51.81867 | -8.51330 | 2747 ft | 95 kts | 259° |
| 2026-05-01 13:44 | 51.81729 | -8.52369 | 3063 ft | 96 kts | 236° |
| 2026-05-01 13:44 | 51.81330 | -8.53188 | 3470 ft | 92 kts | 219° |
| 2026-05-01 13:45 | 51.80856 | -8.53878 | 3842 ft | 91 kts | 219° |
| 2026-05-01 13:45 | 51.80400 | -8.54576 | 4162 ft | 93 kts | 220° |
| 2026-05-01 13:45 | 51.79902 | -8.55335 | 4174 ft | 104 kts | 219° |
| 2026-05-01 13:45 | 51.79348 | -8.56152 | 4159 ft | 111 kts | 218° |
| 2026-05-01 13:46 | 51.78700 | -8.56889 | 4163 ft | 116 kts | 202° |
| 2026-05-01 13:46 | 51.77914 | -8.57215 | 4184 ft | 118 kts | 193° |
| 2026-05-01 13:46 | 51.77107 | -8.57520 | 4188 ft | 119 kts | 194° |
| 2026-05-01 13:46 | 51.76288 | -8.57810 | 4159 ft | 122 kts | 191° |
| 2026-05-01 13:47 | 51.75442 | -8.57983 | 4165 ft | 122 kts | 187° |
| 2026-05-01 13:47 | 51.74587 | -8.58051 | 4147 ft | 125 kts | 185° |
| 2026-05-01 13:47 | 51.73716 | -8.58152 | 4141 ft | 126 kts | 187° |
| 2026-05-01 13:47 | 51.72850 | -8.58309 | 4191 ft | 123 kts | 187° |
| 2026-05-01 13:48 | 51.72012 | -8.58428 | 4203 ft | 123 kts | 188° |
| 2026-05-01 13:48 | 51.71153 | -8.58605 | 4163 ft | 125 kts | 188° |
| 2026-05-01 13:48 | 51.70285 | -8.58861 | 4148 ft | 125 kts | 195° |
| 2026-05-01 13:48 | 51.69470 | -8.59282 | 4173 ft | 123 kts | 201° |
| 2026-05-01 13:49 | 51.68742 | -8.60062 | 4076 ft | 130 kts | 225° |
| 2026-05-01 13:49 | 51.68141 | -8.61084 | 4083 ft | 126 kts | 206° |
| 2026-05-01 13:49 | 51.67364 | -8.61687 | 4135 ft | 120 kts | 202° |
| 2026-05-01 13:49 | 51.66602 | -8.62238 | 4080 ft | 125 kts | 210° |
| 2026-05-01 13:50 | 51.65914 | -8.63074 | 4087 ft | 123 kts | 218° |
| 2026-05-01 13:50 | 51.65255 | -8.63923 | 4152 ft | 119 kts | 217° |
| 2026-05-01 13:50 | 51.64603 | -8.64549 | 4376 ft | 104 kts | 213° |
| 2026-05-01 13:50 | 51.63966 | -8.65395 | 4067 ft | 130 kts | 219° |
| 2026-05-01 13:51 | 51.63315 | -8.66339 | 4135 ft | 121 kts | 223° |
| 2026-05-01 13:51 | 51.63043 | -8.67633 | 4063 ft | 125 kts | 255° |
| 2026-05-01 13:51 | 51.62864 | -8.68944 | 4137 ft | 107 kts | 232° |
| 2026-05-01 13:51 | 51.62218 | -8.69416 | 3990 ft | 118 kts | 173° |
| 2026-05-01 13:52 | 51.61561 | -8.68603 | 3963 ft | 128 kts | 120° |
| 2026-05-01 13:52 | 51.61250 | -8.67314 | 3983 ft | 125 kts | 120° |
| 2026-05-01 13:52 | 51.60928 | -8.66059 | 4047 ft | 116 kts | 121° |
| 2026-05-01 13:52 | 51.60879 | -8.64678 | 3920 ft | 131 kts | 97° |
| 2026-05-01 13:53 | 51.60761 | -8.63342 | 3943 ft | 117 kts | 128° |
| 2026-05-01 13:53 | 51.59565 | -8.62750 | 3931 ft | 103 kts | 228° |
| 2026-05-01 13:53 | 51.59614 | -8.63908 | 3886 ft | 124 kts | 303° |
| 2026-05-01 13:54 | 51.60418 | -8.64400 | 3901 ft | 128 kts | 2° |
| 2026-05-01 13:54 | 51.61178 | -8.63763 | 3837 ft | 125 kts | 49° |
| 2026-05-01 13:54 | 51.61741 | -8.62825 | 3818 ft | 105 kts | 50° |
| 2026-05-01 13:54 | 51.62169 | -8.62105 | 3715 ft | 83 kts | 57° |
| 2026-05-01 13:55 | 51.62597 | -8.61190 | 3746 ft | 113 kts | 59° |
| 2026-05-01 13:55 | 51.63046 | -8.59981 | 3675 ft | 126 kts | 84° |
| 2026-05-01 13:55 | 51.62731 | -8.59196 | 3973 ft | 64 kts | 173° |
| 2026-05-01 13:55 | 51.62315 | -8.59047 | 3843 ft | 81 kts | 182° |
| 2026-05-01 13:56 | 51.61793 | -8.59026 | 4082 ft | 86 kts | 194° |
| 2026-05-01 13:56 | 51.61239 | -8.59271 | 4134 ft | 76 kts | 199° |
| 2026-05-01 13:56 | 51.60937 | -8.59787 | 4175 ft | 71 kts | 255° |
| 2026-05-01 13:56 | 51.60884 | -8.60723 | 4190 ft | 95 kts | 271° |
| 2026-05-01 13:57 | 51.61298 | -8.61548 | 4248 ft | 105 kts | 328° |
| 2026-05-01 13:57 | 51.61999 | -8.61702 | 4307 ft | 91 kts | 332° |
| 2026-05-01 13:57 | 51.62502 | -8.62347 | 4444 ft | 102 kts | 306° |
| 2026-05-01 13:57 | 51.63064 | -8.63195 | 4396 ft | 111 kts | 310° |
| 2026-05-01 13:58 | 51.63636 | -8.63949 | 4360 ft | 102 kts | 310° |
| 2026-05-01 13:58 | 51.64197 | -8.64431 | 4394 ft | 91 kts | 355° |
| 2026-05-01 13:58 | 51.64824 | -8.64026 | 4448 ft | 107 kts | 29° |
| 2026-05-01 13:58 | 51.65486 | -8.63459 | 4826 ft | 107 kts | 32° |
| 2026-05-01 13:59 | 51.66110 | -8.62863 | 5161 ft | 83 kts | 36° |
| 2026-05-01 13:59 | 51.66670 | -8.62506 | 4873 ft | 101 kts | 332° |
| 2026-05-01 13:59 | 51.67200 | -8.63167 | 5277 ft | 95 kts | 312° |
| 2026-05-01 13:59 | 51.67747 | -8.63858 | 5616 ft | 101 kts | 316° |
| 2026-05-01 14:00 | 51.68340 | -8.64466 | 6051 ft | 101 kts | 324° |
| 2026-05-01 14:00 | 51.69013 | -8.64809 | 6487 ft | 106 kts | 347° |
| 2026-05-01 14:00 | 51.69783 | -8.64854 | 6766 ft | 113 kts | 358° |
| 2026-05-01 14:00 | 51.70541 | -8.64873 | 6879 ft | 105 kts | 8° |
| 2026-05-01 14:01 | 51.71243 | -8.64846 | 6967 ft | 90 kts | 17° |
| 2026-05-01 14:01 | 51.71817 | -8.64566 | 6751 ft | 93 kts | 79° |
| 2026-05-01 14:01 | 51.71496 | -8.63239 | 4706 ft | 188 kts | 126° |
| 2026-05-01 14:01 | 51.70926 | -8.61742 | 4950 ft | 122 kts | 137° |
| 2026-05-01 14:02 | 51.70395 | -8.62086 | 5042 ft | 115 kts | 267° |
| 2026-05-01 14:02 | 51.71074 | -8.62527 | 5148 ft | 133 kts | 39° |
| 2026-05-01 14:02 | 51.71866 | -8.61540 | 5088 ft | 144 kts | 39° |
| 2026-05-01 14:02 | 51.72269 | -8.60938 | 5517 ft | 28 kts | 71° |
| 2026-05-01 14:03 | 51.72434 | -8.62226 | 3739 ft | 101 kts | 271° |
| 2026-05-01 14:03 | 51.72693 | -8.63426 | 3890 ft | 118 kts | 281° |
| 2026-05-01 14:03 | 51.73053 | -8.64727 | 4075 ft | 135 kts | 314° |
| 2026-05-01 14:03 | 51.74018 | -8.64887 | 4360 ft | 146 kts | 20° |
| 2026-05-01 14:04 | 51.74882 | -8.64408 | 4500 ft | 116 kts | 21° |
| 2026-05-01 14:04 | 51.75598 | -8.63948 | 4232 ft | 109 kts | 26° |
| 2026-05-01 14:04 | 51.76341 | -8.63672 | 3882 ft | 113 kts | 348° |
| 2026-05-01 14:04 | 51.76817 | -8.63973 | 3659 ft | 107 kts | 322° |
| 2026-05-01 14:05 | 51.77612 | -8.64896 | 3196 ft | 106 kts | 315° |
| 2026-05-01 14:05 | 51.77955 | -8.65785 | 2912 ft | 87 kts | 268° |
| 2026-05-01 14:05 | 51.77974 | -8.66681 | 2586 ft | 78 kts | 236° |
| 2026-05-01 14:05 | 51.77506 | -8.66985 | 2224 ft | 76 kts | 181° |
| 2026-05-01 14:06 | 51.76996 | -8.66811 | 1908 ft | 80 kts | 141° |
| 2026-05-01 14:06 | 51.76956 | -8.65872 | 1617 ft | 94 kts | 84° |
| 2026-05-01 14:06 | 51.77327 | -8.65045 | 1335 ft | 103 kts | 14° |
| 2026-05-01 14:06 | 51.77995 | -8.65246 | 942 ft | 102 kts | 307° |
| 2026-05-01 14:07 | 51.77879 | -8.65963 | 548 ft | 72 kts | 195° |
| 2026-05-01 14:07 | 51.77427 | -8.66161 | 322 ft | 74 kts | 190° |
| 2026-05-01 14:07 | 51.76914 | -8.66337 | 612 ft | 81 kts | 191° |
| 2026-05-01 14:08 | 51.75826 | -8.66681 | 1176 ft | 86 kts | 185° |
| 2026-05-01 14:08 | 51.75301 | -8.66513 | 1545 ft | 99 kts | 120° |
| 2026-05-01 14:08 | 51.75813 | -8.65489 | 1627 ft | 145 kts | 35° |
| 2026-05-01 14:08 | 51.76666 | -8.64635 | 1657 ft | 145 kts | 33° |
| 2026-05-01 14:09 | 51.77533 | -8.63738 | 1581 ft | 150 kts | 36° |
| 2026-05-01 14:09 | 51.78378 | -8.62724 | 1478 ft | 151 kts | 53° |
| 2026-05-01 14:09 | 51.78928 | -8.61342 | 1492 ft | 143 kts | 66° |
| 2026-05-01 14:09 | 51.79441 | -8.59979 | 1478 ft | 143 kts | 64° |
| 2026-05-01 14:10 | 51.79889 | -8.58553 | 1420 ft | 142 kts | 70° |
| 2026-05-01 14:10 | 51.80299 | -8.57111 | 1394 ft | 141 kts | 74° |
| 2026-05-01 14:10 | 51.80534 | -8.56108 | 1388 ft | 140 kts | 79° |
| 2026-05-01 14:10 | 51.81021 | -8.54254 | 1512 ft | 138 kts | 52° |
| 2026-05-01 14:11 | 51.81587 | -8.53700 | 1514 ft | 146 kts | 16° |
| 2026-05-01 14:11 | 51.83524 | -8.54306 | 1548 ft | 139 kts | 342° |
| 2026-05-01 14:11 | 51.84437 | -8.54739 | 1517 ft | 136 kts | 337° |
| 2026-05-01 14:12 | 51.85309 | -8.55177 | 1491 ft | 124 kts | 341° |
| 2026-05-01 14:12 | 51.86111 | -8.55190 | 1475 ft | 117 kts | 42° |
| 2026-05-01 14:12 | 51.86489 | -8.54126 | 1349 ft | 109 kts | 81° |
| 2026-05-01 14:12 | 51.86694 | -8.52932 | 1239 ft | 112 kts | 85° |
| 2026-05-01 14:13 | 51.86904 | -8.51734 | 1151 ft | 110 kts | 81° |
| 2026-05-01 14:13 | 51.86768 | -8.50734 | 962 ft | 83 kts | 146° |
| 2026-05-01 14:13 | 51.86304 | -8.50402 | 841 ft | 68 kts | 162° |
| 2026-05-01 14:13 | 51.85860 | -8.50143 | 740 ft | 69 kts | 158° |
| 2026-05-01 14:14 | 51.85387 | -8.49855 | 634 ft | 78 kts | 159° |
| 2026-05-01 14:14 | 51.84873 | -8.49546 | 525 ft | 76 kts | 161° |
| 2026-05-01 14:14 | 51.84453 | -8.49299 | 477 ft | 46 kts | 162° |
| 2026-05-01 14:14 | 51.84214 | -8.49161 | 472 ft | 29 kts | 160° |
| 2026-05-01 14:15 | 51.84058 | -8.49070 | 470 ft | 19 kts | 159° |
| 2026-05-01 14:15 | 51.83952 | -8.48999 | 466 ft | 14 kts | 157° |
| 2026-05-01 14:15 | 51.83870 | -8.48953 | 465 ft | 11 kts | 158° |
| 2026-05-01 14:15 | 51.83799 | -8.48905 | 462 ft | 10 kts | 168° |
| 2026-05-01 14:16 | 51.83786 | -8.48822 | 463 ft | 9 kts | 70° |
| 2026-05-01 14:16 | 51.83809 | -8.48715 | 460 ft | 12 kts | 71° |
| 2026-05-01 14:16 | 51.83845 | -8.48602 | 454 ft | 8 kts | 2° |
| 2026-05-01 14:16 | 51.83891 | -8.48625 | 454 ft | 4 kts | 338° |
| 2026-05-01 14:17 | 51.83889 | -8.48649 | 454 ft | 0 kts | 245° |